createdAt,value
2018-09-24T00:01:59.629Z,102843.63
2018-09-24T00:04:28.067Z,102848.45
2018-09-24T00:06:58.812Z,102850.75
2018-09-24T00:09:29.465Z,102854.64
2018-09-24T00:12:00.083Z,102863.46
2018-09-24T00:14:29.121Z,102865.42
2018-09-24T00:17:00.593Z,102884.33
2018-09-24T00:19:31.049Z,102891.48
2018-09-24T00:22:01.125Z,102893.05
2018-09-24T00:24:30.197Z,102899.80
2018-09-24T00:27:00.666Z,102905.58
2018-09-24T00:29:31.029Z,102917.36
2018-09-24T00:31:59.614Z,102922.89
2018-09-24T00:34:30.423Z,102928.09
2018-09-24T00:37:00.904Z,102936.03
2018-09-24T00:39:30.666Z,102937.36
2018-09-24T00:41:59.312Z,102938.55
2018-09-24T00:44:29.668Z,102943.37
2018-09-24T00:46:58.246Z,102952.98
2018-09-24T00:49:28.904Z,102959.74
2018-09-24T00:51:59.228Z,102949.76
2018-09-24T00:54:29.376Z,102958.66
2018-09-24T00:56:59.179Z,102966.61
2018-09-24T00:59:29.402Z,102963.62
2018-09-24T01:01:58.114Z,102972.99
2018-09-24T01:04:28.559Z,102979.75
2018-09-24T01:06:58.950Z,102978.53
2018-09-24T01:09:28.299Z,102990.22
2018-09-24T01:11:58.344Z,102996.50
2018-09-24T01:14:28.463Z,103003.70
2018-09-24T01:16:56.966Z,103008.18
2018-09-24T01:19:27.470Z,103014.06
2018-09-24T01:21:57.885Z,103002.52
2018-09-24T01:24:28.348Z,102986.72
2018-09-24T01:26:57.047Z,102993.95
2018-09-24T01:29:27.264Z,102999.48
2018-09-24T01:31:55.760Z,102998.02
2018-09-24T01:34:26.324Z,103009.13
2018-09-24T01:36:56.139Z,103006.10
2018-09-24T01:39:24.971Z,103018.16
2018-09-24T01:41:55.150Z,103012.25
2018-09-24T01:44:25.094Z,103015.99
2018-09-24T01:46:53.811Z,103019.59
2018-09-24T01:49:23.835Z,103023.56
2018-09-24T01:51:55.607Z,103025.37
2018-09-24T01:54:28.529Z,103020.91
2018-09-24T01:56:58.923Z,103028.02
2018-09-24T01:59:27.512Z,103027.54
2018-09-24T02:01:57.662Z,103032.50
2018-09-24T02:04:27.985Z,103028.28
2018-09-24T02:07:02.172Z,103032.02
2018-09-24T02:09:32.832Z,103037.42
2018-09-24T02:12:07.154Z,103034.43
2018-09-24T02:14:38.164Z,103035.01
2018-09-24T02:17:11.276Z,103033.10
2018-09-24T02:19:42.039Z,103035.00
2018-09-24T02:22:13.443Z,103050.55
2018-09-24T02:24:43.835Z,103047.66
2018-09-24T02:27:12.458Z,103043.92
2018-09-24T02:29:42.643Z,103037.44
2018-09-24T02:32:13.139Z,103042.50
2018-09-24T02:34:41.705Z,103051.14
2018-09-24T02:37:17.702Z,103055.35
2018-09-24T02:39:48.177Z,103057.63
2018-09-24T02:42:16.672Z,103053.78
2018-09-24T02:44:46.964Z,103057.52
2018-09-24T02:47:15.528Z,103061.24
2018-09-24T02:49:45.927Z,103072.91
2018-09-24T02:52:16.285Z,103082.78
2018-09-24T02:54:46.025Z,103084.67
2018-09-24T02:57:15.714Z,103102.73
2018-09-24T02:59:47.958Z,103116.95
2018-09-24T03:02:18.353Z,103121.48
2018-09-24T03:04:49.359Z,103133.30
2018-09-24T03:07:18.861Z,103138.47
2018-09-24T03:09:50.510Z,103137.77
2018-09-24T03:12:20.389Z,103138.02
2018-09-24T03:14:48.937Z,103144.50
2018-09-24T03:17:20.016Z,103143.17
2018-09-24T03:19:50.274Z,103141.76
2018-09-24T03:22:24.842Z,103147.52
2018-09-24T03:24:55.014Z,103146.07
2018-09-24T03:27:25.622Z,103146.92
2018-09-24T03:29:56.025Z,103142.00
2018-09-24T03:32:26.324Z,103144.99
2018-09-24T03:34:54.856Z,103143.80
2018-09-24T03:37:25.590Z,103141.76
2018-09-24T03:39:56.112Z,103139.34
2018-09-24T03:42:26.342Z,103141.84
2018-09-24T03:44:54.932Z,103147.14
2018-09-24T03:47:25.289Z,103157.83
2018-09-24T03:49:53.943Z,103166.23
2018-09-24T03:52:24.136Z,103170.71
2018-09-24T03:54:54.145Z,103171.28
2018-09-24T03:57:22.799Z,103163.44
2018-09-24T03:59:53.221Z,103167.86
2018-09-24T04:02:23.593Z,103170.86
2018-09-24T04:04:57.281Z,103177.91
2018-09-24T04:07:32.774Z,103178.64
2018-09-24T04:10:06.562Z,103181.98
2018-09-24T04:12:40.169Z,103187.48
2018-09-24T04:15:15.452Z,103191.80
2018-09-24T04:17:49.253Z,103193.34
2018-09-24T04:20:23.043Z,103205.45
2018-09-24T04:22:59.061Z,103208.01
2018-09-24T04:25:33.991Z,103193.80
2018-09-24T04:28:09.878Z,103199.78
2018-09-24T04:30:43.842Z,103216.37
2018-09-24T04:33:19.369Z,103232.16
2018-09-24T04:35:53.243Z,103239.11
2018-09-24T04:38:26.919Z,103235.52
2018-09-24T04:41:02.255Z,103237.95
2018-09-24T04:43:36.203Z,103232.41
2018-09-24T04:46:11.179Z,103240.39
2018-09-24T04:48:45.417Z,103238.00
2018-09-24T04:51:19.156Z,103239.95
2018-09-24T04:54:00.023Z,103240.47
2018-09-24T04:56:34.014Z,103245.41
2018-09-24T04:59:08.019Z,103248.69
2018-09-24T05:01:43.626Z,103253.17
2018-09-24T05:04:17.523Z,103250.40
2018-09-24T05:06:53.354Z,103255.12
2018-09-24T05:09:27.294Z,103252.35
2018-09-24T05:12:01.315Z,103264.89
2018-09-24T05:14:37.181Z,103258.53
2018-09-24T05:17:11.190Z,103258.41
2018-09-24T05:19:46.017Z,103264.80
2018-09-24T05:22:19.942Z,103271.20
2018-09-24T05:24:54.066Z,103276.75
2018-09-24T05:27:29.890Z,103287.33
2018-09-24T05:30:03.664Z,103272.30
2018-09-24T05:32:39.053Z,103257.74
2018-09-24T05:35:12.983Z,103265.21
2018-09-24T05:37:48.375Z,103265.69
2018-09-24T05:40:23.180Z,103269.41
2018-09-24T05:42:56.897Z,103267.70
2018-09-24T05:45:32.687Z,103259.98
2018-09-24T05:48:06.367Z,103263.95
2018-09-24T05:50:40.098Z,103259.98
2018-09-24T05:53:15.822Z,103259.73
2018-09-24T05:55:49.806Z,103263.35
2018-09-24T05:58:25.631Z,103265.15
2018-09-24T06:00:59.429Z,103276.68
2018-09-24T06:03:34.983Z,103272.11
2018-09-24T06:06:08.717Z,103284.96
2018-09-24T06:08:42.431Z,103280.14
2018-09-24T06:11:18.567Z,103286.28
2018-09-24T06:13:52.215Z,103295.42
2018-09-24T06:16:26.009Z,103300.87
2018-09-24T06:19:01.382Z,103307.63
2018-09-24T06:21:35.385Z,103316.08
2018-09-24T06:24:10.273Z,103320.08
2018-09-24T06:26:44.401Z,103327.84
2018-09-24T06:29:18.619Z,103344.14
2018-09-24T06:31:54.412Z,103370.00
2018-09-24T06:34:28.267Z,103373.30
2018-09-24T06:37:04.226Z,103370.70
2018-09-24T06:39:37.977Z,103366.03
2018-09-24T06:42:11.642Z,103364.97
2018-09-24T06:44:47.031Z,103372.03
2018-09-24T06:47:20.855Z,103374.92
2018-09-24T06:49:58.887Z,103381.58
2018-09-24T06:52:32.717Z,103382.41
2018-09-24T06:55:08.379Z,103390.62
2018-09-24T06:57:42.777Z,103392.36
2018-09-24T07:00:18.089Z,103400.55
2018-09-24T07:02:51.789Z,103398.90
2018-09-24T07:05:27.881Z,103411.44
2018-09-24T07:08:01.767Z,103410.97
2018-09-24T07:10:37.700Z,103399.51
2018-09-24T07:13:11.407Z,103402.87
2018-09-24T07:15:46.590Z,103408.05
2018-09-24T07:18:21.032Z,103416.02
2018-09-24T07:20:56.659Z,103420.38
2018-09-24T07:23:30.489Z,103424.73
2018-09-24T07:26:06.346Z,103425.69
2018-09-24T07:28:40.265Z,103426.17
2018-09-24T07:31:16.175Z,103421.95
2018-09-24T07:33:49.987Z,103424.48
2018-09-24T07:36:25.324Z,103430.22
2018-09-24T07:38:59.340Z,103436.24
2018-09-24T07:41:33.545Z,103439.66
2018-09-24T07:44:08.525Z,103443.55
2018-09-24T07:46:42.201Z,103446.83
2018-09-24T07:49:17.589Z,103455.80
2018-09-24T07:51:51.502Z,103458.06
2018-09-24T07:54:27.413Z,103460.42
2018-09-24T07:57:01.258Z,103472.83
2018-09-24T07:59:36.396Z,103473.52
2018-09-24T08:02:11.633Z,103471.54
2018-09-24T08:04:45.557Z,103480.45
2018-09-24T08:07:21.171Z,103482.42
2018-09-24T08:09:54.851Z,103483.33
2018-09-24T08:12:30.642Z,103481.42
2018-09-24T08:15:04.736Z,103483.91
2018-09-24T08:17:41.866Z,103478.36
2018-09-24T08:20:15.790Z,103488.34
2018-09-24T08:22:51.258Z,103488.55
2018-09-24T08:25:27.973Z,103488.19
2018-09-24T08:28:01.598Z,103486.78
2018-09-24T08:30:35.379Z,103490.01
2018-09-24T08:33:11.185Z,103503.20
2018-09-24T08:35:45.037Z,103502.94
2018-09-24T08:38:20.909Z,103501.65
2018-09-24T08:40:54.655Z,103499.50
2018-09-24T08:43:30.043Z,103496.61
2018-09-24T08:46:04.051Z,103509.17
2018-09-24T08:48:39.185Z,103515.77
2018-09-24T08:51:12.942Z,103510.13
2018-09-24T08:53:46.750Z,103519.28
2018-09-24T08:56:22.265Z,103533.42
2018-09-24T08:58:55.931Z,103536.07
2018-09-24T09:01:31.752Z,103536.88
2018-09-24T09:04:05.528Z,103542.95
2018-09-24T09:06:41.496Z,103547.09
2018-09-24T09:09:16.518Z,103540.69
2018-09-24T09:11:52.209Z,103544.02
2018-09-24T09:14:26.010Z,103535.70
2018-09-24T09:17:01.451Z,103536.11
2018-09-24T09:19:35.028Z,103537.86
2018-09-24T09:22:10.754Z,103543.98
2018-09-24T09:24:44.695Z,103557.17
2018-09-24T09:27:20.059Z,103570.00
2018-09-24T09:29:53.830Z,103582.53
2018-09-24T09:32:29.952Z,103583.72
2018-09-24T09:35:03.785Z,103583.84
2018-09-24T09:37:39.888Z,103574.99
2018-09-24T09:40:13.594Z,103574.05
2018-09-24T09:42:47.424Z,103572.67
2018-09-24T09:45:22.386Z,103584.22
2018-09-24T09:47:56.210Z,103574.23
2018-09-24T09:50:32.015Z,103579.22
2018-09-24T09:53:05.749Z,103570.24
2018-09-24T09:55:41.092Z,103574.64
2018-09-24T09:58:15.192Z,103571.02
2018-09-24T10:00:51.299Z,103570.62
2018-09-24T10:03:25.198Z,103566.29
2018-09-24T10:06:00.655Z,103571.45
2018-09-24T10:08:34.517Z,103577.12
2018-09-24T10:11:10.593Z,103573.09
2018-09-24T10:13:44.492Z,103571.70
2018-09-24T10:16:20.260Z,103575.30
2018-09-24T10:18:54.114Z,103574.16
2018-09-24T10:21:29.856Z,103573.69
2018-09-24T10:24:03.599Z,103580.44
2018-09-24T10:26:39.562Z,103580.28
2018-09-24T10:29:14.641Z,103574.48
2018-09-24T10:31:49.039Z,103583.21
2018-09-24T10:34:22.790Z,103588.40
2018-09-24T10:36:59.789Z,103594.00
2018-09-24T10:39:35.775Z,103593.09
2018-09-24T10:42:09.431Z,103592.13
2018-09-24T10:44:45.273Z,103598.12
2018-09-24T10:47:20.924Z,103596.51
2018-09-24T10:49:54.627Z,103601.74
2018-09-24T10:52:29.183Z,103609.08
2018-09-24T10:55:03.718Z,103611.31
2018-09-24T10:57:40.019Z,103611.36
2018-09-24T11:00:13.881Z,103611.81
2018-09-24T11:03:02.194Z,103619.25
2018-09-24T11:05:35.932Z,103616.41
2018-09-24T11:08:11.613Z,103611.60
2018-09-24T11:10:45.536Z,103610.45
2018-09-24T11:13:21.208Z,103615.16
2018-09-24T11:15:55.364Z,103612.45
2018-09-24T11:18:30.744Z,103614.13
2018-09-24T11:21:04.482Z,103614.28
2018-09-24T11:23:40.456Z,103618.27
2018-09-24T11:28:50.365Z,103621.00
2018-09-24T11:31:24.263Z,103625.09
2018-09-24T11:33:59.706Z,103629.86
2018-09-24T11:36:35.750Z,103622.34
2018-09-24T11:39:11.165Z,103622.30
2018-09-24T11:41:47.124Z,103626.32
2018-09-24T11:44:23.275Z,103621.56
2018-09-24T11:46:57.906Z,103628.39
2018-09-24T11:49:33.178Z,103629.16
2018-09-24T11:52:07.280Z,103629.57
2018-09-24T11:54:42.543Z,103621.42
2018-09-24T11:57:16.352Z,103628.31
2018-09-24T11:59:51.809Z,103617.15
2018-09-24T12:02:25.721Z,103614.14
2018-09-24T12:05:01.561Z,103618.58
2018-09-24T12:07:35.170Z,103621.11
2018-09-24T12:10:10.739Z,103613.94
2018-09-24T12:12:44.452Z,103608.93
2018-09-24T12:15:19.753Z,103616.28
2018-09-24T12:17:54.409Z,103614.94
2018-09-24T12:20:29.872Z,103615.97
2018-09-24T12:23:03.897Z,103615.29
2018-09-24T12:25:39.281Z,103610.94
2018-09-24T12:28:16.063Z,103609.74
2018-09-24T12:30:50.096Z,103617.50
2018-09-24T12:33:25.954Z,103615.46
2018-09-24T12:36:04.295Z,103613.77
2018-09-24T12:38:38.554Z,103606.92
2018-09-24T12:41:12.371Z,103604.71
2018-09-24T12:43:49.452Z,103610.44
2018-09-24T12:46:24.979Z,103606.77
2018-09-24T12:48:58.822Z,103605.73
2018-09-24T12:51:36.581Z,103609.92
2018-09-24T12:54:12.519Z,103613.94
2018-09-24T12:56:46.733Z,103620.52
2018-09-24T12:59:22.810Z,103610.10
2018-09-24T13:01:59.177Z,103621.69
2018-09-24T13:04:33.992Z,103624.24
2018-09-24T13:07:09.339Z,103623.20
2018-09-24T13:09:43.105Z,103627.77
2018-09-24T13:12:19.854Z,103630.09
2018-09-24T13:14:57.423Z,103625.40
2018-09-24T13:17:31.860Z,103629.73
2018-09-24T13:20:07.844Z,103632.76
2018-09-24T13:22:41.689Z,103639.47
2018-09-24T13:25:17.688Z,103640.49
2018-09-24T13:27:51.588Z,103635.09
2018-09-24T13:30:27.881Z,103634.38
2018-09-24T13:33:01.910Z,103639.58
2018-09-24T13:35:37.517Z,103645.59
2018-09-24T13:38:11.284Z,103640.33
2018-09-24T13:40:47.578Z,103634.14
2018-09-24T13:43:21.483Z,103633.68
2018-09-24T13:45:57.086Z,103631.51
2018-09-24T13:48:30.914Z,103636.07
2018-09-24T13:51:06.367Z,103633.55
2018-09-24T13:53:40.462Z,103636.12
2018-09-24T13:56:15.506Z,103640.17
2018-09-24T13:58:49.421Z,103634.13
2018-09-24T14:01:24.943Z,103636.31
2018-09-24T14:03:58.920Z,103640.20
2018-09-24T14:06:34.500Z,103635.81
2018-09-24T14:09:10.044Z,103646.92
2018-09-24T14:11:45.653Z,103648.38
2018-09-24T14:14:19.685Z,103646.81
2018-09-24T14:16:55.173Z,103647.05
2018-09-24T14:19:30.230Z,103644.95
2018-09-24T14:22:03.929Z,103654.13
2018-09-24T14:24:39.745Z,103649.16
2018-09-24T14:27:13.766Z,103649.64
2018-09-24T14:29:47.423Z,103639.95
2018-09-24T14:32:23.250Z,103641.52
2018-09-24T14:34:57.726Z,103649.03
2018-09-24T14:37:33.313Z,103648.59
2018-09-24T14:40:07.041Z,103648.95
2018-09-24T14:42:40.942Z,103657.19
2018-09-24T14:45:17.089Z,103657.36
2018-09-24T14:47:50.848Z,103658.53
2018-09-24T14:50:25.035Z,103656.55
2018-09-24T14:53:02.657Z,103653.30
2018-09-24T14:55:38.300Z,103658.92
2018-09-24T14:58:14.901Z,103655.38
2018-09-24T15:00:53.514Z,103664.92
2018-09-24T15:03:32.034Z,103652.38
2018-09-24T15:06:07.783Z,103654.72
2018-09-24T15:08:42.685Z,103656.09
2018-09-24T15:11:17.575Z,103661.86
2018-09-24T15:13:52.327Z,103658.36
2018-09-24T15:16:26.979Z,103662.35
2018-09-24T15:19:03.672Z,103650.05
2018-09-24T15:21:37.559Z,103661.73
2018-09-24T15:24:11.389Z,103657.00
2018-09-24T15:26:47.010Z,103667.16
2018-09-24T15:29:21.754Z,103665.20
2018-09-24T15:31:57.113Z,103655.84
2018-09-24T15:34:31.191Z,103659.48
2018-09-24T15:37:05.414Z,103658.97
2018-09-24T15:39:42.588Z,103659.20
2018-09-24T15:42:17.323Z,103656.61
2018-09-24T15:44:53.354Z,103655.50
2018-09-24T15:47:28.460Z,103658.06
2018-09-24T15:50:05.174Z,103658.77
2018-09-24T15:52:45.659Z,103660.47
2018-09-24T15:55:19.564Z,103661.69
2018-09-24T15:57:55.674Z,103657.21
2018-09-24T16:00:29.674Z,103658.81
2018-09-24T16:03:06.749Z,103648.72
2018-09-24T16:05:40.721Z,103658.80
2018-09-24T16:08:14.600Z,103662.81
2018-09-24T16:10:51.001Z,103655.52
2018-09-24T16:13:24.962Z,103657.11
2018-09-24T16:15:59.299Z,103654.61
2018-09-24T16:18:34.814Z,103663.04
2018-09-24T16:21:08.746Z,103664.59
2018-09-24T16:23:42.554Z,103668.80
2018-09-24T16:26:19.987Z,103669.77
2018-09-24T16:28:53.686Z,103667.56
2018-09-24T16:31:27.452Z,103667.47
2018-09-24T16:34:02.721Z,103672.73
2018-09-24T16:36:37.243Z,103671.34
2018-09-24T16:39:15.337Z,103667.52
2018-09-24T16:41:49.353Z,103669.50
2018-09-24T16:44:23.296Z,103667.52
2018-09-24T16:46:58.612Z,103676.34
2018-09-24T16:49:32.525Z,103676.45
2018-09-24T16:52:06.415Z,103670.05
2018-09-24T16:54:40.422Z,103675.91
2018-09-24T16:57:17.478Z,103676.19
2018-09-24T16:59:51.226Z,103673.49
2018-09-24T17:02:27.927Z,103688.34
2018-09-24T17:05:01.595Z,103691.44
2018-09-24T17:07:35.488Z,103693.10
2018-09-24T17:10:11.451Z,103698.50
2018-09-24T17:12:45.802Z,103697.86
2018-09-24T17:15:19.390Z,103698.33
2018-09-24T17:17:53.264Z,103703.28
2018-09-24T17:20:29.075Z,103695.56
2018-09-24T17:23:03.072Z,103704.46
2018-09-24T17:25:36.985Z,103703.69
2018-09-24T17:28:10.800Z,103705.06
2018-09-24T17:30:46.842Z,103697.73
2018-09-24T17:33:20.908Z,103710.63
2018-09-24T17:35:54.655Z,103703.48
2018-09-24T17:38:28.401Z,103708.38
2018-09-24T17:41:04.145Z,103707.00
2018-09-24T17:43:37.719Z,103707.06
2018-09-24T17:46:11.519Z,103711.38
2018-09-24T17:48:45.291Z,103711.41
2018-09-24T17:51:18.960Z,103711.55
2018-09-24T17:53:54.276Z,103718.16
2018-09-24T17:56:29.012Z,103710.44
2018-09-24T17:59:03.628Z,103711.83
2018-09-24T18:01:37.370Z,103713.41
2018-09-24T18:04:14.050Z,103716.32
2018-09-24T18:06:49.510Z,103716.57
2018-09-24T18:09:23.619Z,103724.47
2018-09-24T18:11:57.568Z,103728.83
2018-09-24T18:14:31.282Z,103726.99
2018-09-24T18:17:07.136Z,103738.52
2018-09-24T18:19:41.033Z,103738.30
2018-09-24T18:22:14.833Z,103746.56
2018-09-24T18:24:48.721Z,103741.73
2018-09-24T18:27:23.753Z,103740.41
2018-09-24T18:29:59.697Z,103744.78
2018-09-24T18:32:33.534Z,103738.37
2018-09-24T18:35:07.289Z,103748.53
2018-09-24T18:37:41.013Z,103743.34
2018-09-24T18:40:14.966Z,103743.58
2018-09-24T18:42:48.570Z,103750.73
2018-09-24T18:45:22.384Z,103750.72
2018-09-24T18:47:56.129Z,103752.99
2018-09-24T18:50:29.862Z,103753.84
2018-09-24T18:53:03.533Z,103753.48
2018-09-24T18:55:38.590Z,103751.66
2018-09-24T18:58:14.306Z,103749.10
2018-09-24T19:00:48.478Z,103759.49
2018-09-24T19:03:22.334Z,103752.98
2018-09-24T19:05:56.118Z,103757.20
2018-09-24T19:08:30.805Z,103762.61
2018-09-24T19:11:06.603Z,103764.92
2018-09-24T19:13:40.701Z,103765.85
2018-09-24T19:16:14.624Z,103775.48
2018-09-24T19:18:48.355Z,103783.08
2018-09-24T19:21:22.101Z,103777.89
2018-09-24T19:23:55.682Z,103786.81
2018-09-24T19:26:31.000Z,103793.71
2018-09-24T19:29:06.698Z,103789.05
2018-09-24T19:31:41.298Z,103791.61
2018-09-24T19:34:15.013Z,103796.33
2018-09-24T19:39:21.544Z,103810.46
2018-09-24T19:41:55.281Z,103810.61
2018-09-24T19:44:31.105Z,103803.73
2018-09-24T19:47:06.368Z,103813.90
2018-09-24T19:49:40.129Z,103818.70
2018-09-24T19:52:13.722Z,103820.53
2018-09-24T19:54:49.307Z,103813.66
2018-09-24T19:57:23.842Z,103813.05
2018-09-24T19:59:57.594Z,103801.95
2018-09-24T20:02:31.245Z,103807.89
2018-09-24T20:05:07.502Z,103810.18
2018-09-24T20:07:41.454Z,103805.59
2018-09-24T20:10:15.412Z,103811.72
2018-09-24T20:12:49.437Z,103812.69
2018-09-24T20:15:23.170Z,103822.45
2018-09-24T20:17:56.958Z,103820.75
2018-09-24T20:20:30.689Z,103813.36
2018-09-24T20:23:06.630Z,103819.02
2018-09-24T20:25:41.791Z,103823.80
2018-09-24T20:28:15.796Z,103823.45
2018-09-24T20:30:50.734Z,103826.84
2018-09-24T20:33:25.805Z,103821.75
2018-09-24T20:35:59.637Z,103823.20
2018-09-24T20:38:33.802Z,103827.54
2018-09-24T20:41:07.583Z,103830.42
2018-09-24T20:43:41.495Z,103841.05
2018-09-24T20:46:15.291Z,103844.88
2018-09-24T20:48:50.558Z,103843.17
2018-09-24T20:51:25.294Z,103839.84
2018-09-24T20:54:00.115Z,103845.25
2018-09-24T20:56:35.995Z,103844.52
2018-09-24T20:59:09.983Z,103842.55
2018-09-24T21:01:43.738Z,103851.00
2018-09-24T21:04:17.940Z,103853.02
2018-09-24T21:06:54.815Z,103860.98
2018-09-24T21:09:28.659Z,103860.52
2018-09-24T21:12:02.478Z,103862.82
2018-09-24T21:14:37.329Z,103857.51
2018-09-24T21:17:12.589Z,103859.40
2018-09-24T21:19:46.704Z,103858.67
2018-09-24T21:22:20.616Z,103864.84
2018-09-24T21:24:54.719Z,103866.64
2018-09-24T21:27:28.509Z,103869.77
2018-09-24T21:30:04.822Z,103876.91
2018-09-24T21:32:39.099Z,103875.67
2018-09-24T21:35:13.174Z,103881.45
2018-09-24T21:37:50.149Z,103878.07
2018-09-24T21:40:25.093Z,103873.83
2018-09-24T21:43:03.290Z,103879.73
2018-09-24T21:45:37.736Z,103883.89
2018-09-24T21:48:13.401Z,103890.21
2018-09-24T21:50:48.160Z,103886.72
2018-09-24T21:53:23.979Z,103884.34
2018-09-24T21:55:57.772Z,103895.11
2018-09-24T21:58:31.681Z,103899.15
2018-09-24T22:01:05.515Z,103903.59
2018-09-24T22:03:41.571Z,103900.68
2018-09-24T22:06:16.178Z,103900.62
2018-09-24T22:08:49.841Z,103902.00
2018-09-24T22:11:23.562Z,103903.27
2018-09-24T22:13:57.246Z,103907.09
2018-09-24T22:16:33.251Z,103906.75
2018-09-24T22:19:15.013Z,103910.63
2018-09-24T22:21:48.827Z,103905.64
2018-09-24T22:24:22.674Z,103910.67
2018-09-24T22:26:56.445Z,103907.05
2018-09-24T22:29:31.837Z,103907.82
2018-09-24T22:32:07.349Z,103909.03
2018-09-24T22:34:41.245Z,103915.81
2018-09-24T22:37:14.941Z,103913.84
2018-09-24T22:39:51.189Z,103911.00
2018-09-24T22:42:25.599Z,103908.23
2018-09-24T22:44:59.424Z,103916.10
2018-09-24T22:47:33.352Z,103911.15
2018-09-24T22:50:07.121Z,103911.92
2018-09-24T22:52:40.833Z,103903.42
2018-09-24T22:55:14.775Z,103903.83
2018-09-24T22:57:50.247Z,103896.24
2018-09-24T23:00:24.233Z,103892.97
2018-09-24T23:02:58.012Z,103899.41
2018-09-24T23:05:31.833Z,103897.07
2018-09-24T23:08:05.726Z,103895.75
2018-09-24T23:10:39.564Z,103894.70
2018-09-24T23:13:17.113Z,103899.02
2018-09-24T23:15:51.762Z,103898.94
2018-09-24T23:18:25.709Z,103896.29
2018-09-24T23:21:01.806Z,103895.31
2018-09-24T23:23:36.928Z,103893.99
2018-09-24T23:26:11.489Z,103901.39
2018-09-24T23:28:45.419Z,103901.47
2018-09-24T23:31:20.877Z,103900.27
2018-09-24T23:33:55.575Z,103896.64
2018-09-24T23:36:29.725Z,103898.08
2018-09-24T23:39:03.558Z,103898.08
2018-09-24T23:41:37.796Z,103898.08
2018-09-24T23:44:11.758Z,103893.37
2018-09-24T23:46:47.364Z,103894.70
2018-09-24T23:49:22.558Z,103897.27
2018-09-24T23:51:56.197Z,103900.86
2018-09-24T23:54:29.801Z,103896.53
2018-09-24T23:57:03.926Z,103896.06
2018-09-24T23:59:39.871Z,103902.77
